sensor_id;sensor_type;location;lat;lon;timestamp;P1;durP1;ratioP1;P2;durP2;ratioP2
5967;SDS011;3010;51.028;4.170;2022-08-05T00:01:21;3.77;;;3.43;;
5967;SDS011;3010;51.028;4.170;2022-08-05T00:03:47;5.03;;;3.53;;
5967;SDS011;3010;51.028;4.170;2022-08-05T00:06:14;3.83;;;3.40;;
5967;SDS011;3010;51.028;4.170;2022-08-05T00:08:40;6.13;;;3.73;;
5967;SDS011;3010;51.028;4.170;2022-08-05T00:11:08;6.23;;;3.33;;
5967;SDS011;3010;51.028;4.170;2022-08-05T00:13:34;3.60;;;3.30;;
5967;SDS011;3010;51.028;4.170;2022-08-05T00:16:00;4.70;;;3.87;;
5967;SDS011;3010;51.028;4.170;2022-08-05T00:18:27;3.40;;;3.13;;
5967;SDS011;3010;51.028;4.170;2022-08-05T00:20:53;3.83;;;3.40;;
5967;SDS011;3010;51.028;4.170;2022-08-05T00:23:20;3.33;;;3.13;;
5967;SDS011;3010;51.028;4.170;2022-08-05T00:25:46;3.87;;;3.53;;
5967;SDS011;3010;51.028;4.170;2022-08-05T00:28:13;5.70;;;3.50;;
5967;SDS011;3010;51.028;4.170;2022-08-05T00:30:40;4.33;;;3.20;;
5967;SDS011;3010;51.028;4.170;2022-08-05T00:33:06;4.70;;;3.60;;
5967;SDS011;3010;51.028;4.170;2022-08-05T00:35:33;5.27;;;3.70;;
5967;SDS011;3010;51.028;4.170;2022-08-05T00:37:59;5.17;;;3.50;;
5967;SDS011;3010;51.028;4.170;2022-08-05T00:40:26;3.50;;;3.30;;
5967;SDS011;3010;51.028;4.170;2022-08-05T00:42:53;5.37;;;3.60;;
5967;SDS011;3010;51.028;4.170;2022-08-05T00:45:19;4.47;;;3.60;;
5967;SDS011;3010;51.028;4.170;2022-08-05T00:47:46;4.77;;;3.43;;
5967;SDS011;3010;51.028;4.170;2022-08-05T00:50:12;4.77;;;3.37;;
5967;SDS011;3010;51.028;4.170;2022-08-05T00:52:39;6.30;;;3.60;;
5967;SDS011;3010;51.028;4.170;2022-08-05T00:55:05;3.57;;;3.27;;
5967;SDS011;3010;51.028;4.170;2022-08-05T00:57:32;5.87;;;3.25;;
5967;SDS011;3010;51.028;4.170;2022-08-05T00:59:58;3.43;;;3.20;;
5967;SDS011;3010;51.028;4.170;2022-08-05T01:02:25;3.83;;;2.97;;
5967;SDS011;3010;51.028;4.170;2022-08-05T01:04:52;4.53;;;3.27;;
5967;SDS011;3010;51.028;4.170;2022-08-05T01:07:18;7.00;;;3.10;;
5967;SDS011;3010;51.028;4.170;2022-08-05T01:09:45;4.27;;;2.93;;
5967;SDS011;3010;51.028;4.170;2022-08-05T01:12:13;6.60;;;3.53;;
5967;SDS011;3010;51.028;4.170;2022-08-05T01:14:48;3.73;;;3.40;;
5967;SDS011;3010;51.028;4.170;2022-08-05T01:17:19;3.43;;;3.07;;
5967;SDS011;3010;51.028;4.170;2022-08-05T01:19:53;4.23;;;2.80;;
5967;SDS011;3010;51.028;4.170;2022-08-05T01:24:53;3.93;;;2.87;;
5967;SDS011;3010;51.028;4.170;2022-08-05T01:29:53;3.97;;;3.67;;
5967;SDS011;3010;51.028;4.170;2022-08-05T01:32:19;7.17;;;3.10;;
5967;SDS011;3010;51.028;4.170;2022-08-05T01:35:00;3.33;;;2.80;;
5967;SDS011;3010;51.028;4.170;2022-08-05T01:37:38;4.87;;;3.60;;
5967;SDS011;3010;51.028;4.170;2022-08-05T01:40:02;4.73;;;3.30;;
5967;SDS011;3010;51.028;4.170;2022-08-05T01:42:29;3.60;;;3.40;;
5967;SDS011;3010;51.028;4.170;2022-08-05T01:44:56;5.15;;;3.40;;
5967;SDS011;3010;51.028;4.170;2022-08-05T01:47:22;3.63;;;3.30;;
5967;SDS011;3010;51.028;4.170;2022-08-05T01:49:49;5.33;;;3.57;;
5967;SDS011;3010;51.028;4.170;2022-08-05T01:52:15;4.70;;;3.60;;
5967;SDS011;3010;51.028;4.170;2022-08-05T01:54:43;6.17;;;3.83;;
5967;SDS011;3010;51.028;4.170;2022-08-05T01:57:09;5.80;;;3.80;;
5967;SDS011;3010;51.028;4.170;2022-08-05T01:59:35;4.33;;;3.30;;
5967;SDS011;3010;51.028;4.170;2022-08-05T02:02:02;9.88;;;3.87;;
5967;SDS011;3010;51.028;4.170;2022-08-05T02:04:28;5.97;;;3.33;;
5967;SDS011;3010;51.028;4.170;2022-08-05T02:06:55;5.90;;;3.23;;
5967;SDS011;3010;51.028;4.170;2022-08-05T02:09:21;5.87;;;3.53;;
5967;SDS011;3010;51.028;4.170;2022-08-05T02:12:36;5.03;;;3.33;;
5967;SDS011;3010;51.028;4.170;2022-08-05T02:14:23;5.43;;;3.63;;
5967;SDS011;3010;51.028;4.170;2022-08-05T02:16:48;4.10;;;3.03;;
5967;SDS011;3010;51.028;4.170;2022-08-05T02:21:48;5.37;;;3.33;;
5967;SDS011;3010;51.028;4.170;2022-08-05T02:24:13;3.77;;;3.27;;
5967;SDS011;3010;51.028;4.170;2022-08-05T02:26:40;4.10;;;3.40;;
5967;SDS011;3010;51.028;4.170;2022-08-05T02:29:05;4.40;;;3.00;;
5967;SDS011;3010;51.028;4.170;2022-08-05T02:31:32;5.47;;;3.30;;
5967;SDS011;3010;51.028;4.170;2022-08-05T02:34:00;5.53;;;3.60;;
5967;SDS011;3010;51.028;4.170;2022-08-05T02:36:25;3.30;;;3.10;;
5967;SDS011;3010;51.028;4.170;2022-08-05T02:38:51;5.80;;;3.60;;
5967;SDS011;3010;51.028;4.170;2022-08-05T02:41:18;3.60;;;3.40;;
5967;SDS011;3010;51.028;4.170;2022-08-05T02:43:45;6.77;;;3.60;;
5967;SDS011;3010;51.028;4.170;2022-08-05T02:46:14;5.50;;;3.60;;
5967;SDS011;3010;51.028;4.170;2022-08-05T02:48:40;7.10;;;4.03;;
5967;SDS011;3010;51.028;4.170;2022-08-05T02:51:07;5.77;;;4.00;;
5967;SDS011;3010;51.028;4.170;2022-08-05T02:53:33;7.27;;;4.10;;
5967;SDS011;3010;51.028;4.170;2022-08-05T02:56:00;7.87;;;4.13;;
5967;SDS011;3010;51.028;4.170;2022-08-05T02:58:27;5.87;;;3.90;;
5967;SDS011;3010;51.028;4.170;2022-08-05T03:00:57;11.27;;;4.20;;
5967;SDS011;3010;51.028;4.170;2022-08-05T03:03:23;6.53;;;4.37;;
5967;SDS011;3010;51.028;4.170;2022-08-05T03:05:49;5.13;;;4.37;;
5967;SDS011;3010;51.028;4.170;2022-08-05T03:08:16;7.10;;;4.50;;
5967;SDS011;3010;51.028;4.170;2022-08-05T03:10:43;5.60;;;4.30;;
5967;SDS011;3010;51.028;4.170;2022-08-05T03:13:13;6.67;;;4.53;;
5967;SDS011;3010;51.028;4.170;2022-08-05T03:15:42;7.70;;;4.60;;
5967;SDS011;3010;51.028;4.170;2022-08-05T03:18:08;7.33;;;4.60;;
5967;SDS011;3010;51.028;4.170;2022-08-05T03:20:34;4.63;;;4.33;;
5967;SDS011;3010;51.028;4.170;2022-08-05T03:23:01;6.40;;;4.80;;
5967;SDS011;3010;51.028;4.170;2022-08-05T03:25:27;10.57;;;4.83;;
5967;SDS011;3010;51.028;4.170;2022-08-05T03:27:54;7.23;;;4.70;;
5967;SDS011;3010;51.028;4.170;2022-08-05T03:30:21;8.30;;;5.20;;
5967;SDS011;3010;51.028;4.170;2022-08-05T03:32:47;6.30;;;4.73;;
5967;SDS011;3010;51.028;4.170;2022-08-05T03:35:14;9.07;;;5.10;;
5967;SDS011;3010;51.028;4.170;2022-08-05T03:37:40;8.10;;;4.93;;
5967;SDS011;3010;51.028;4.170;2022-08-05T03:40:07;7.83;;;5.73;;
5967;SDS011;3010;51.028;4.170;2022-08-05T03:42:34;8.65;;;5.40;;
5967;SDS011;3010;51.028;4.170;2022-08-05T03:45:00;9.33;;;5.27;;
5967;SDS011;3010;51.028;4.170;2022-08-05T03:47:27;8.25;;;5.30;;
5967;SDS011;3010;51.028;4.170;2022-08-05T03:49:53;6.43;;;5.30;;
5967;SDS011;3010;51.028;4.170;2022-08-05T03:52:30;7.17;;;5.10;;
5967;SDS011;3010;51.028;4.170;2022-08-05T03:55:03;6.87;;;5.03;;
5967;SDS011;3010;51.028;4.170;2022-08-05T03:57:31;6.17;;;4.83;;
5967;SDS011;3010;51.028;4.170;2022-08-05T04:00:03;8.67;;;5.87;;
5967;SDS011;3010;51.028;4.170;2022-08-05T04:02:33;8.13;;;5.97;;
5967;SDS011;3010;51.028;4.170;2022-08-05T04:05:00;6.13;;;5.17;;
5967;SDS011;3010;51.028;4.170;2022-08-05T04:07:26;8.83;;;5.30;;
5967;SDS011;3010;51.028;4.170;2022-08-05T04:09:53;7.37;;;5.13;;
5967;SDS011;3010;51.028;4.170;2022-08-05T04:12:19;9.03;;;5.33;;
5967;SDS011;3010;51.028;4.170;2022-08-05T04:14:46;11.13;;;5.80;;
5967;SDS011;3010;51.028;4.170;2022-08-05T04:17:12;8.23;;;6.13;;
5967;SDS011;3010;51.028;4.170;2022-08-05T04:19:46;11.30;;;6.10;;
5967;SDS011;3010;51.028;4.170;2022-08-05T04:22:12;10.83;;;6.70;;
5967;SDS011;3010;51.028;4.170;2022-08-05T04:24:39;11.60;;;6.60;;
5967;SDS011;3010;51.028;4.170;2022-08-05T04:27:08;9.77;;;7.20;;
5967;SDS011;3010;51.028;4.170;2022-08-05T04:29:34;7.03;;;6.43;;
5967;SDS011;3010;51.028;4.170;2022-08-05T04:32:01;8.30;;;7.30;;
5967;SDS011;3010;51.028;4.170;2022-08-05T04:34:27;9.33;;;6.40;;
5967;SDS011;3010;51.028;4.170;2022-08-05T04:36:54;8.00;;;7.00;;
5967;SDS011;3010;51.028;4.170;2022-08-05T04:39:20;8.73;;;6.73;;
5967;SDS011;3010;51.028;4.170;2022-08-05T04:41:47;10.63;;;7.60;;
5967;SDS011;3010;51.028;4.170;2022-08-05T04:44:14;9.13;;;6.87;;
5967;SDS011;3010;51.028;4.170;2022-08-05T04:46:40;10.63;;;7.10;;
5967;SDS011;3010;51.028;4.170;2022-08-05T04:49:07;11.82;;;7.90;;
5967;SDS011;3010;51.028;4.170;2022-08-05T04:51:33;7.97;;;7.17;;
5967;SDS011;3010;51.028;4.170;2022-08-05T04:54:00;10.87;;;7.47;;
5967;SDS011;3010;51.028;4.170;2022-08-05T04:56:27;9.13;;;7.40;;
5967;SDS011;3010;51.028;4.170;2022-08-05T04:58:53;10.70;;;7.10;;
5967;SDS011;3010;51.028;4.170;2022-08-05T05:01:20;11.70;;;7.53;;
5967;SDS011;3010;51.028;4.170;2022-08-05T05:03:46;12.17;;;7.17;;
5967;SDS011;3010;51.028;4.170;2022-08-05T05:06:13;7.13;;;6.43;;
5967;SDS011;3010;51.028;4.170;2022-08-05T05:08:39;9.33;;;6.70;;
5967;SDS011;3010;51.028;4.170;2022-08-05T05:11:06;8.00;;;6.97;;
5967;SDS011;3010;51.028;4.170;2022-08-05T05:13:33;10.75;;;6.85;;
5967;SDS011;3010;51.028;4.170;2022-08-05T05:15:59;8.43;;;6.40;;
5967;SDS011;3010;51.028;4.170;2022-08-05T05:18:26;6.27;;;5.77;;
5967;SDS011;3010;51.028;4.170;2022-08-05T05:20:52;9.23;;;5.90;;
5967;SDS011;3010;51.028;4.170;2022-08-05T05:23:19;12.13;;;6.67;;
5967;SDS011;3010;51.028;4.170;2022-08-05T05:25:46;7.00;;;5.87;;
5967;SDS011;3010;51.028;4.170;2022-08-05T05:28:12;8.03;;;6.73;;
5967;SDS011;3010;51.028;4.170;2022-08-05T05:30:39;8.33;;;6.53;;
5967;SDS011;3010;51.028;4.170;2022-08-05T05:33:06;7.07;;;6.33;;
5967;SDS011;3010;51.028;4.170;2022-08-05T05:35:32;9.50;;;6.80;;
5967;SDS011;3010;51.028;4.170;2022-08-05T05:37:59;9.10;;;6.20;;
5967;SDS011;3010;51.028;4.170;2022-08-05T05:40:25;8.60;;;7.20;;
5967;SDS011;3010;51.028;4.170;2022-08-05T05:42:52;8.80;;;6.90;;
5967;SDS011;3010;51.028;4.170;2022-08-05T05:45:18;8.70;;;6.90;;
5967;SDS011;3010;51.028;4.170;2022-08-05T05:47:45;8.87;;;6.77;;
5967;SDS011;3010;51.028;4.170;2022-08-05T05:50:12;8.50;;;6.40;;
5967;SDS011;3010;51.028;4.170;2022-08-05T05:52:38;7.80;;;7.10;;
5967;SDS011;3010;51.028;4.170;2022-08-05T05:55:05;10.00;;;7.03;;
5967;SDS011;3010;51.028;4.170;2022-08-05T05:57:31;10.37;;;6.13;;
5967;SDS011;3010;51.028;4.170;2022-08-05T05:59:58;9.27;;;6.27;;
5967;SDS011;3010;51.028;4.170;2022-08-05T06:02:24;9.00;;;6.13;;
5967;SDS011;3010;51.028;4.170;2022-08-05T06:04:51;10.67;;;6.83;;
5967;SDS011;3010;51.028;4.170;2022-08-05T06:07:18;7.50;;;6.50;;
5967;SDS011;3010;51.028;4.170;2022-08-05T06:09:44;10.13;;;6.72;;
5967;SDS011;3010;51.028;4.170;2022-08-05T06:12:11;7.40;;;6.50;;
5967;SDS011;3010;51.028;4.170;2022-08-05T06:14:37;9.10;;;6.47;;
5967;SDS011;3010;51.028;4.170;2022-08-05T06:17:04;9.23;;;6.10;;
5967;SDS011;3010;51.028;4.170;2022-08-05T06:19:31;7.10;;;6.10;;
5967;SDS011;3010;51.028;4.170;2022-08-05T06:21:57;12.30;;;6.07;;
5967;SDS011;3010;51.028;4.170;2022-08-05T06:24:24;7.07;;;5.90;;
5967;SDS011;3010;51.028;4.170;2022-08-05T06:26:50;9.98;;;6.20;;
5967;SDS011;3010;51.028;4.170;2022-08-05T06:29:17;9.00;;;6.57;;
5967;SDS011;3010;51.028;4.170;2022-08-05T06:31:43;7.70;;;6.00;;
5967;SDS011;3010;51.028;4.170;2022-08-05T06:34:10;10.10;;;6.33;;
5967;SDS011;3010;51.028;4.170;2022-08-05T06:36:37;9.17;;;6.50;;
5967;SDS011;3010;51.028;4.170;2022-08-05T06:39:03;8.70;;;5.73;;
5967;SDS011;3010;51.028;4.170;2022-08-05T06:41:30;7.80;;;6.03;;
5967;SDS011;3010;51.028;4.170;2022-08-05T06:43:56;6.07;;;5.10;;
5967;SDS011;3010;51.028;4.170;2022-08-05T06:46:23;7.57;;;5.53;;
5967;SDS011;3010;51.028;4.170;2022-08-05T06:48:50;5.90;;;5.13;;
5967;SDS011;3010;51.028;4.170;2022-08-05T06:51:16;5.60;;;4.87;;
5967;SDS011;3010;51.028;4.170;2022-08-05T06:53:43;6.93;;;5.47;;
5967;SDS011;3010;51.028;4.170;2022-08-05T06:56:09;15.32;;;5.10;;
5967;SDS011;3010;51.028;4.170;2022-08-05T06:58:36;5.87;;;4.63;;
5967;SDS011;3010;51.028;4.170;2022-08-05T07:01:03;7.63;;;4.17;;
5967;SDS011;3010;51.028;4.170;2022-08-05T07:03:29;5.40;;;3.90;;
5967;SDS011;3010;51.028;4.170;2022-08-05T07:05:56;6.10;;;3.80;;
5967;SDS011;3010;51.028;4.170;2022-08-05T07:08:22;5.67;;;4.53;;
5967;SDS011;3010;51.028;4.170;2022-08-05T07:10:49;5.57;;;4.50;;
5967;SDS011;3010;51.028;4.170;2022-08-05T07:13:16;5.60;;;3.73;;
5967;SDS011;3010;51.028;4.170;2022-08-05T07:16:00;4.90;;;4.03;;
5967;SDS011;3010;51.028;4.170;2022-08-05T07:18:45;4.57;;;3.63;;
5967;SDS011;3010;51.028;4.170;2022-08-05T07:21:12;7.40;;;5.43;;
5967;SDS011;3010;51.028;4.170;2022-08-05T07:23:39;7.57;;;4.70;;
5967;SDS011;3010;51.028;4.170;2022-08-05T07:26:05;8.30;;;4.50;;
5967;SDS011;3010;51.028;4.170;2022-08-05T07:28:32;7.55;;;4.32;;
5967;SDS011;3010;51.028;4.170;2022-08-05T07:30:58;7.53;;;4.10;;
5967;SDS011;3010;51.028;4.170;2022-08-05T07:33:25;5.03;;;4.53;;
5967;SDS011;3010;51.028;4.170;2022-08-05T07:35:52;4.50;;;3.93;;
5967;SDS011;3010;51.028;4.170;2022-08-05T07:38:18;4.67;;;4.20;;
5967;SDS011;3010;51.028;4.170;2022-08-05T07:40:45;7.60;;;4.63;;
5967;SDS011;3010;51.028;4.170;2022-08-05T07:43:11;4.87;;;3.93;;
5967;SDS011;3010;51.028;4.170;2022-08-05T07:45:44;5.10;;;3.30;;
5967;SDS011;3010;51.028;4.170;2022-08-05T07:48:10;5.03;;;3.80;;
5967;SDS011;3010;51.028;4.170;2022-08-05T07:50:37;5.83;;;3.50;;
5967;SDS011;3010;51.028;4.170;2022-08-05T07:53:03;3.57;;;3.27;;
5967;SDS011;3010;51.028;4.170;2022-08-05T07:55:30;7.10;;;3.37;;
5967;SDS011;3010;51.028;4.170;2022-08-05T07:57:57;3.53;;;2.87;;
5967;SDS011;3010;51.028;4.170;2022-08-05T08:00:23;6.57;;;3.23;;
5967;SDS011;3010;51.028;4.170;2022-08-05T08:02:50;4.30;;;2.90;;
5967;SDS011;3010;51.028;4.170;2022-08-05T08:05:16;4.20;;;3.07;;
5967;SDS011;3010;51.028;4.170;2022-08-05T08:07:43;3.33;;;3.10;;
5967;SDS011;3010;51.028;4.170;2022-08-05T08:10:10;2.63;;;2.40;;
5967;SDS011;3010;51.028;4.170;2022-08-05T08:12:36;5.20;;;2.77;;
5967;SDS011;3010;51.028;4.170;2022-08-05T08:15:03;4.67;;;2.63;;
5967;SDS011;3010;51.028;4.170;2022-08-05T08:17:30;4.10;;;2.28;;
5967;SDS011;3010;51.028;4.170;2022-08-05T08:19:56;2.47;;;2.23;;
5967;SDS011;3010;51.028;4.170;2022-08-05T08:22:26;5.77;;;2.60;;
5967;SDS011;3010;51.028;4.170;2022-08-05T08:24:52;3.83;;;2.30;;
5967;SDS011;3010;51.028;4.170;2022-08-05T08:27:19;4.07;;;2.00;;
5967;SDS011;3010;51.028;4.170;2022-08-05T08:29:45;2.63;;;1.93;;
5967;SDS011;3010;51.028;4.170;2022-08-05T08:32:12;2.25;;;1.90;;
5967;SDS011;3010;51.028;4.170;2022-08-05T08:34:38;3.47;;;2.17;;
5967;SDS011;3010;51.028;4.170;2022-08-05T08:37:05;2.10;;;2.00;;
5967;SDS011;3010;51.028;4.170;2022-08-05T08:39:32;6.40;;;1.90;;
5967;SDS011;3010;51.028;4.170;2022-08-05T08:41:58;1.80;;;1.70;;
5967;SDS011;3010;51.028;4.170;2022-08-05T08:44:26;3.03;;;1.80;;
5967;SDS011;3010;51.028;4.170;2022-08-05T08:46:51;3.58;;;1.80;;
5967;SDS011;3010;51.028;4.170;2022-08-05T08:49:18;4.10;;;1.70;;
5967;SDS011;3010;51.028;4.170;2022-08-05T08:51:48;6.47;;;1.87;;
5967;SDS011;3010;51.028;4.170;2022-08-05T08:54:14;2.53;;;1.33;;
5967;SDS011;3010;51.028;4.170;2022-08-05T08:56:41;1.70;;;1.07;;
5967;SDS011;3010;51.028;4.170;2022-08-05T08:59:07;2.37;;;1.40;;
5967;SDS011;3010;51.028;4.170;2022-08-05T09:01:35;1.80;;;1.30;;
5967;SDS011;3010;51.028;4.170;2022-08-05T09:04:01;1.50;;;1.40;;
5967;SDS011;3010;51.028;4.170;2022-08-05T09:06:28;1.67;;;1.57;;
5967;SDS011;3010;51.028;4.170;2022-08-05T09:08:54;2.07;;;1.50;;
5967;SDS011;3010;51.028;4.170;2022-08-05T09:11:20;1.63;;;1.50;;
5967;SDS011;3010;51.028;4.170;2022-08-05T09:13:47;1.20;;;1.10;;
5967;SDS011;3010;51.028;4.170;2022-08-05T09:16:13;1.60;;;1.47;;
5967;SDS011;3010;51.028;4.170;2022-08-05T09:18:40;2.07;;;1.43;;
5967;SDS011;3010;51.028;4.170;2022-08-05T09:21:07;1.63;;;1.00;;
5967;SDS011;3010;51.028;4.170;2022-08-05T09:23:33;1.42;;;1.33;;
5967;SDS011;3010;51.028;4.170;2022-08-05T09:26:19;1.57;;;1.20;;
5967;SDS011;3010;51.028;4.170;2022-08-05T09:28:39;2.00;;;1.30;;
5967;SDS011;3010;51.028;4.170;2022-08-05T09:31:11;1.37;;;1.30;;
5967;SDS011;3010;51.028;4.170;2022-08-05T09:33:47;3.27;;;1.30;;
5967;SDS011;3010;51.028;4.170;2022-08-05T09:36:16;1.43;;;1.40;;
5967;SDS011;3010;51.028;4.170;2022-08-05T09:41:24;1.30;;;1.20;;
5967;SDS011;3010;51.028;4.170;2022-08-05T09:43:50;2.63;;;1.37;;
5967;SDS011;3010;51.028;4.170;2022-08-05T09:46:24;2.10;;;1.23;;
5967;SDS011;3010;51.028;4.170;2022-08-05T09:48:49;2.40;;;1.25;;
5967;SDS011;3010;51.028;4.170;2022-08-05T09:51:16;1.87;;;1.20;;
5967;SDS011;3010;51.028;4.170;2022-08-05T09:53:47;3.47;;;1.43;;
5967;SDS011;3010;51.028;4.170;2022-08-05T09:56:12;1.77;;;1.27;;
5967;SDS011;3010;51.028;4.170;2022-08-05T09:58:39;1.20;;;1.10;;
5967;SDS011;3010;51.028;4.170;2022-08-05T10:01:05;2.97;;;1.00;;
5967;SDS011;3010;51.028;4.170;2022-08-05T10:03:32;1.53;;;1.07;;
5967;SDS011;3010;51.028;4.170;2022-08-05T10:06:05;1.47;;;1.20;;
5967;SDS011;3010;51.028;4.170;2022-08-05T10:08:28;4.05;;;1.23;;
5967;SDS011;3010;51.028;4.170;2022-08-05T10:10:54;2.00;;;1.17;;
5967;SDS011;3010;51.028;4.170;2022-08-05T10:13:34;3.33;;;1.00;;
5967;SDS011;3010;51.028;4.170;2022-08-05T10:15:59;2.55;;;1.20;;
5967;SDS011;3010;51.028;4.170;2022-08-05T10:18:26;1.30;;;1.20;;
5967;SDS011;3010;51.028;4.170;2022-08-05T10:20:57;1.20;;;1.00;;
5967;SDS011;3010;51.028;4.170;2022-08-05T10:23:26;1.27;;;0.90;;
5967;SDS011;3010;51.028;4.170;2022-08-05T10:25:49;1.27;;;1.00;;
5967;SDS011;3010;51.028;4.170;2022-08-05T10:28:15;1.03;;;1.00;;
5967;SDS011;3010;51.028;4.170;2022-08-05T10:30:42;1.00;;;0.97;;
5967;SDS011;3010;51.028;4.170;2022-08-05T10:33:08;1.70;;;1.00;;
5967;SDS011;3010;51.028;4.170;2022-08-05T10:35:35;1.90;;;0.90;;
5967;SDS011;3010;51.028;4.170;2022-08-05T10:38:02;1.97;;;0.87;;
5967;SDS011;3010;51.028;4.170;2022-08-05T10:40:38;0.93;;;0.93;;
5967;SDS011;3010;51.028;4.170;2022-08-05T10:43:12;0.70;;;0.70;;
5967;SDS011;3010;51.028;4.170;2022-08-05T10:45:33;1.37;;;1.00;;
5967;SDS011;3010;51.028;4.170;2022-08-05T10:48:27;1.10;;;1.00;;
5967;SDS011;3010;51.028;4.170;2022-08-05T10:50:26;1.43;;;0.97;;
5967;SDS011;3010;51.028;4.170;2022-08-05T10:52:53;1.77;;;1.00;;
5967;SDS011;3010;51.028;4.170;2022-08-05T10:55:22;1.63;;;1.10;;
5967;SDS011;3010;51.028;4.170;2022-08-05T10:58:05;1.50;;;1.23;;
5967;SDS011;3010;51.028;4.170;2022-08-05T11:00:16;2.22;;;1.15;;
5967;SDS011;3010;51.028;4.170;2022-08-05T11:05:37;2.60;;;0.98;;
5967;SDS011;3010;51.028;4.170;2022-08-05T11:08:04;1.13;;;1.00;;
5967;SDS011;3010;51.028;4.170;2022-08-05T11:10:31;1.40;;;0.87;;
5967;SDS011;3010;51.028;4.170;2022-08-05T11:12:57;1.07;;;1.00;;
5967;SDS011;3010;51.028;4.170;2022-08-05T11:15:26;1.03;;;0.90;;
5967;SDS011;3010;51.028;4.170;2022-08-05T11:18:06;6.77;;;1.03;;
5967;SDS011;3010;51.028;4.170;2022-08-05T11:20:38;1.80;;;1.10;;
5967;SDS011;3010;51.028;4.170;2022-08-05T11:23:26;5.33;;;1.20;;
5967;SDS011;3010;51.028;4.170;2022-08-05T11:33:30;1.20;;;1.10;;
5967;SDS011;3010;51.028;4.170;2022-08-05T11:35:57;1.23;;;1.13;;
5967;SDS011;3010;51.028;4.170;2022-08-05T11:41:04;2.20;;;0.90;;
5967;SDS011;3010;51.028;4.170;2022-08-05T11:43:32;2.20;;;1.17;;
5967;SDS011;3010;51.028;4.170;2022-08-05T11:45:59;2.10;;;0.70;;
5967;SDS011;3010;51.028;4.170;2022-08-05T11:48:25;0.70;;;0.70;;
5967;SDS011;3010;51.028;4.170;2022-08-05T11:50:51;2.23;;;1.00;;
5967;SDS011;3010;51.028;4.170;2022-08-05T11:53:18;0.97;;;0.87;;
5967;SDS011;3010;51.028;4.170;2022-08-05T11:55:54;0.70;;;0.70;;
5967;SDS011;3010;51.028;4.170;2022-08-05T12:01:02;1.70;;;0.60;;
5967;SDS011;3010;51.028;4.170;2022-08-05T12:03:39;0.60;;;0.60;;
5967;SDS011;3010;51.028;4.170;2022-08-05T12:06:19;2.53;;;0.80;;
5967;SDS011;3010;51.028;4.170;2022-08-05T12:08:45;1.73;;;0.70;;
5967;SDS011;3010;51.028;4.170;2022-08-05T12:11:21;2.53;;;0.80;;
5967;SDS011;3010;51.028;4.170;2022-08-05T12:16:31;0.63;;;0.63;;
5967;SDS011;3010;51.028;4.170;2022-08-05T12:18:52;1.00;;;0.67;;
5967;SDS011;3010;51.028;4.170;2022-08-05T12:21:19;0.50;;;0.50;;
5967;SDS011;3010;51.028;4.170;2022-08-05T12:23:51;1.17;;;0.70;;
5967;SDS011;3010;51.028;4.170;2022-08-05T12:26:32;0.73;;;0.50;;
5967;SDS011;3010;51.028;4.170;2022-08-05T12:29:09;0.50;;;0.50;;
5967;SDS011;3010;51.028;4.170;2022-08-05T12:31:34;1.13;;;0.50;;
5967;SDS011;3010;51.028;4.170;2022-08-05T12:34:05;3.13;;;0.70;;
5967;SDS011;3010;51.028;4.170;2022-08-05T12:36:27;0.60;;;0.60;;
5967;SDS011;3010;51.028;4.170;2022-08-05T12:38:53;0.73;;;0.60;;
5967;SDS011;3010;51.028;4.170;2022-08-05T12:41:20;2.30;;;0.77;;
5967;SDS011;3010;51.028;4.170;2022-08-05T12:43:49;4.30;;;1.27;;
5967;SDS011;3010;51.028;4.170;2022-08-05T12:46:19;1.70;;;0.63;;
5967;SDS011;3010;51.028;4.170;2022-08-05T12:48:45;2.27;;;0.83;;
5967;SDS011;3010;51.028;4.170;2022-08-05T12:51:12;0.90;;;0.90;;
5967;SDS011;3010;51.028;4.170;2022-08-05T12:53:40;0.97;;;0.73;;
5967;SDS011;3010;51.028;4.170;2022-08-05T12:56:21;1.37;;;0.60;;
5967;SDS011;3010;51.028;4.170;2022-08-05T13:01:54;2.20;;;0.90;;
5967;SDS011;3010;51.028;4.170;2022-08-05T13:04:20;1.47;;;0.90;;
5967;SDS011;3010;51.028;4.170;2022-08-05T13:06:47;0.70;;;0.70;;
5967;SDS011;3010;51.028;4.170;2022-08-05T13:09:14;4.05;;;0.77;;
5967;SDS011;3010;51.028;4.170;2022-08-05T13:11:41;0.77;;;0.77;;
5967;SDS011;3010;51.028;4.170;2022-08-05T13:14:25;1.20;;;0.70;;
5967;SDS011;3010;51.028;4.170;2022-08-05T13:16:48;0.80;;;0.80;;
5967;SDS011;3010;51.028;4.170;2022-08-05T13:19:19;0.95;;;0.80;;
5967;SDS011;3010;51.028;4.170;2022-08-05T13:21:44;0.60;;;0.60;;
5967;SDS011;3010;51.028;4.170;2022-08-05T13:24:11;0.80;;;0.80;;
5967;SDS011;3010;51.028;4.170;2022-08-05T13:26:37;1.60;;;0.80;;
5967;SDS011;3010;51.028;4.170;2022-08-05T13:29:04;0.60;;;0.60;;
5967;SDS011;3010;51.028;4.170;2022-08-05T13:31:31;1.53;;;0.80;;
5967;SDS011;3010;51.028;4.170;2022-08-05T13:33:57;0.80;;;0.80;;
5967;SDS011;3010;51.028;4.170;2022-08-05T13:36:24;1.37;;;0.70;;
5967;SDS011;3010;51.028;4.170;2022-08-05T13:38:50;0.73;;;0.73;;
5967;SDS011;3010;51.028;4.170;2022-08-05T13:41:17;0.80;;;0.80;;
5967;SDS011;3010;51.028;4.170;2022-08-05T13:43:43;1.17;;;0.80;;
5967;SDS011;3010;51.028;4.170;2022-08-05T13:46:10;0.60;;;0.60;;
5967;SDS011;3010;51.028;4.170;2022-08-05T13:48:37;3.47;;;0.73;;
5967;SDS011;3010;51.028;4.170;2022-08-05T13:51:04;0.80;;;0.50;;
5967;SDS011;3010;51.028;4.170;2022-08-05T13:53:30;1.70;;;0.70;;
5967;SDS011;3010;51.028;4.170;2022-08-05T13:55:56;1.10;;;0.70;;
5967;SDS011;3010;51.028;4.170;2022-08-05T13:58:23;0.83;;;0.70;;
5967;SDS011;3010;51.028;4.170;2022-08-05T14:00:49;3.93;;;1.10;;
5967;SDS011;3010;51.028;4.170;2022-08-05T14:03:16;0.97;;;0.70;;
5967;SDS011;3010;51.028;4.170;2022-08-05T14:05:43;1.70;;;0.93;;
5967;SDS011;3010;51.028;4.170;2022-08-05T14:08:12;1.23;;;0.80;;
5967;SDS011;3010;51.028;4.170;2022-08-05T14:10:38;0.77;;;0.77;;
5967;SDS011;3010;51.028;4.170;2022-08-05T14:13:05;0.93;;;0.80;;
5967;SDS011;3010;51.028;4.170;2022-08-05T14:15:32;1.63;;;0.83;;
5967;SDS011;3010;51.028;4.170;2022-08-05T14:17:59;3.30;;;1.07;;
5967;SDS011;3010;51.028;4.170;2022-08-05T14:20:27;3.30;;;0.93;;
5967;SDS011;3010;51.028;4.170;2022-08-05T14:22:53;1.13;;;1.00;;
5967;SDS011;3010;51.028;4.170;2022-08-05T14:25:19;0.70;;;0.70;;
5967;SDS011;3010;51.028;4.170;2022-08-05T14:27:46;0.80;;;0.80;;
5967;SDS011;3010;51.028;4.170;2022-08-05T14:30:16;1.03;;;0.83;;
5967;SDS011;3010;51.028;4.170;2022-08-05T14:32:42;2.67;;;0.70;;
5967;SDS011;3010;51.028;4.170;2022-08-05T14:35:09;0.80;;;0.80;;
5967;SDS011;3010;51.028;4.170;2022-08-05T14:37:35;2.83;;;1.00;;
5967;SDS011;3010;51.028;4.170;2022-08-05T14:40:02;1.53;;;0.90;;
5967;SDS011;3010;51.028;4.170;2022-08-05T14:42:28;1.57;;;0.70;;
5967;SDS011;3010;51.028;4.170;2022-08-05T14:44:55;0.87;;;0.87;;
5967;SDS011;3010;51.028;4.170;2022-08-05T14:47:22;1.03;;;0.90;;
5967;SDS011;3010;51.028;4.170;2022-08-05T14:49:48;0.60;;;0.60;;
5967;SDS011;3010;51.028;4.170;2022-08-05T14:52:15;1.93;;;0.97;;
5967;SDS011;3010;51.028;4.170;2022-08-05T14:54:41;1.73;;;1.07;;
5967;SDS011;3010;51.028;4.170;2022-08-05T14:57:08;2.00;;;0.93;;
5967;SDS011;3010;51.028;4.170;2022-08-05T14:59:35;4.80;;;1.13;;
5967;SDS011;3010;51.028;4.170;2022-08-05T15:02:02;1.33;;;0.97;;
5967;SDS011;3010;51.028;4.170;2022-08-05T15:04:28;2.07;;;0.70;;
5967;SDS011;3010;51.028;4.170;2022-08-05T15:06:54;2.23;;;1.20;;
5967;SDS011;3010;51.028;4.170;2022-08-05T15:09:21;1.47;;;1.03;;
5967;SDS011;3010;51.028;4.170;2022-08-05T15:11:47;2.87;;;1.10;;
5967;SDS011;3010;51.028;4.170;2022-08-05T15:14:14;3.07;;;1.40;;
5967;SDS011;3010;51.028;4.170;2022-08-05T15:16:41;1.07;;;0.97;;
5967;SDS011;3010;51.028;4.170;2022-08-05T15:19:07;2.93;;;1.00;;
5967;SDS011;3010;51.028;4.170;2022-08-05T15:21:34;1.85;;;1.00;;
5967;SDS011;3010;51.028;4.170;2022-08-05T15:24:00;1.47;;;1.10;;
5967;SDS011;3010;51.028;4.170;2022-08-05T15:26:27;0.93;;;0.90;;
5967;SDS011;3010;51.028;4.170;2022-08-05T15:28:54;1.70;;;0.87;;
5967;SDS011;3010;51.028;4.170;2022-08-05T15:31:20;2.43;;;1.07;;
5967;SDS011;3010;51.028;4.170;2022-08-05T15:33:47;4.70;;;0.80;;
5967;SDS011;3010;51.028;4.170;2022-08-05T15:36:13;0.80;;;0.80;;
5967;SDS011;3010;51.028;4.170;2022-08-05T15:38:40;3.30;;;0.93;;
5967;SDS011;3010;51.028;4.170;2022-08-05T15:41:07;3.40;;;1.10;;
5967;SDS011;3010;51.028;4.170;2022-08-05T15:43:33;1.33;;;1.23;;
5967;SDS011;3010;51.028;4.170;2022-08-05T15:46:00;0.80;;;0.80;;
5967;SDS011;3010;51.028;4.170;2022-08-05T15:48:27;2.27;;;0.90;;